首页
METAR-TAF:

METAR-TAF

机场 :

廊曼国际机场

曼谷, 泰国

纬度: 13-54-45N, 经度: 100-36-24E, 海拔: 4米

当前天气观测

该预报发布于30分钟前的15:00 UTC
风速11节,风向西
温度 29°C
湿度 70%
气压 1005 hPa
能见度10公里或以上
少量云层高于2000英尺

METAR: VTBD 161500Z 26011KT 9999 FEW020 29/23 Q1005 NOSIG

时间: 22:30 (15:30 UTC)

预报

该预报发布于4小时和30分钟前的11:00 UTC
预报有效从16日的 12点(UTC)到 17日的 18点(UTC)
风速8节,风向西转西南
能见度10公里或以上
少量云层高于2000英尺
散云层高于10000英尺
短暂存在
从 17日的 08点(UTC)到 17日的 12点(UTC)
风速15节,风向西
能見度: 6000
少量云层高于1800英尺, 积雨云.
散云层高于3000英尺
多云层高于10000英尺
雷暴, 小雨

TAF: VTBD 161100Z 1612/1718 25008KT 9999 FEW020 SCT100 TEMPO 1708/1712 27015KT 6000 -TSRA FEW018CB SCT030 BKN100

超过4000个机场的气象观测和天气预报(METAR&TAF报告)。

可查询的气象台以黄色和红色小点在地图上表示。

将鼠标移到小点上方,可查看气象台名称。

然后点击查看天气观测和预报。

如需切换地图:点击带黑十字的绿色按钮放大地图;点击带横线的绿色按钮缩小地图;或者点击绿色箭头查看邻近地区的地图。


METAR-TAF: